createdAt,value
2023-05-08T00:00:35.899Z,11.10
2023-05-08T00:04:20.638Z,11.10
2023-05-08T00:08:02.725Z,11.10
2023-05-08T00:11:44.567Z,11.10
2023-05-08T00:15:26.733Z,11.00
2023-05-08T00:19:08.860Z,11.00
2023-05-08T00:22:50.840Z,11.00
2023-05-08T00:26:33.038Z,10.90
2023-05-08T00:30:15.220Z,10.90
2023-05-08T00:33:57.049Z,10.90
2023-05-08T00:37:40.852Z,10.80
2023-05-08T00:41:22.901Z,10.80
2023-05-08T00:45:05.449Z,10.80
2023-05-08T00:48:47.665Z,10.80
2023-05-08T00:52:32.961Z,10.80
2023-05-08T00:56:17.044Z,10.80
2023-05-08T01:00:01.487Z,10.90
2023-05-08T01:03:44.735Z,10.90
2023-05-08T01:07:27.870Z,10.90
2023-05-08T01:11:15.689Z,10.90
2023-05-08T01:15:14.522Z,11.00
2023-05-08T01:19:27.719Z,11.00
2023-05-08T01:23:09.654Z,11.10
2023-05-08T01:27:13.595Z,11.20
2023-05-08T01:31:37.428Z,11.20
2023-05-08T01:35:45.401Z,11.30
2023-05-08T01:39:43.638Z,11.30
2023-05-08T01:43:37.764Z,11.40
2023-05-08T01:47:24.269Z,11.40
2023-05-08T01:51:12.511Z,11.50
2023-05-08T01:55:04.932Z,11.50
2023-05-08T01:58:50.153Z,11.50
2023-05-08T02:02:35.061Z,11.50
2023-05-08T02:06:20.826Z,11.50
2023-05-08T02:10:04.260Z,11.50
2023-05-08T02:13:48.622Z,11.50
2023-05-08T02:17:32.160Z,11.50
2023-05-08T02:21:15.619Z,11.50
2023-05-08T02:24:58.915Z,11.40
2023-05-08T02:28:42.337Z,11.50
2023-05-08T02:32:26.127Z,11.50
2023-05-08T02:36:09.375Z,11.40
2023-05-08T02:39:54.000Z,11.40
2023-05-08T02:43:36.479Z,11.40
2023-05-08T02:47:29.938Z,11.40
2023-05-08T02:51:22.021Z,11.40
2023-05-08T02:55:36.375Z,11.40
2023-05-08T02:59:24.404Z,11.30
2023-05-08T03:03:24.888Z,11.30
2023-05-08T03:07:07.087Z,11.20
2023-05-08T03:10:52.576Z,11.20
2023-05-08T03:14:41.669Z,11.20
2023-05-08T03:18:28.780Z,11.10
2023-05-08T03:22:11.780Z,11.10
2023-05-08T03:25:55.408Z,11.10
2023-05-08T03:29:39.895Z,11.10
2023-05-08T03:33:23.481Z,11.20
2023-05-08T03:37:05.992Z,11.20
2023-05-08T03:40:49.424Z,11.20
2023-05-08T03:44:32.185Z,11.20
2023-05-08T03:48:15.519Z,11.30
2023-05-08T03:51:57.974Z,11.30
2023-05-08T03:55:41.526Z,11.30
2023-05-08T03:59:55.579Z,11.30
2023-05-08T04:03:59.871Z,11.30
2023-05-08T04:07:56.937Z,11.30
2023-05-08T04:11:57.004Z,11.30
2023-05-08T04:15:44.447Z,11.30
2023-05-08T04:19:33.160Z,11.30
2023-05-08T04:23:20.870Z,11.40
2023-05-08T04:27:03.407Z,11.40
2023-05-08T04:30:46.297Z,11.40
2023-05-08T04:34:29.413Z,11.50
2023-05-08T04:38:11.392Z,11.50
2023-05-08T04:41:55.283Z,11.60
2023-05-08T04:45:37.173Z,11.60
2023-05-08T04:49:19.158Z,11.60
2023-05-08T04:53:01.061Z,11.60
2023-05-08T04:56:42.952Z,11.70
2023-05-08T05:00:24.844Z,11.80
2023-05-08T05:04:07.506Z,11.80
2023-05-08T05:07:49.447Z,11.90
2023-05-08T05:11:31.390Z,11.90
2023-05-08T05:15:13.785Z,11.90
2023-05-08T05:18:56.093Z,12.00
2023-05-08T05:22:38.098Z,12.00
2023-05-08T05:26:20.317Z,12.10
2023-05-08T05:30:03.039Z,12.10
2023-05-08T05:33:46.700Z,12.10
2023-05-08T05:37:39.846Z,12.10
2023-05-08T05:41:22.581Z,12.10
2023-05-08T05:45:05.394Z,12.00
2023-05-08T05:48:58.956Z,12.00
2023-05-08T05:52:40.989Z,12.00
2023-05-08T05:56:23.573Z,12.00
2023-05-08T06:04:04.577Z,12.00
2023-05-08T06:08:17.927Z,12.00
2023-05-08T06:11:59.942Z,12.10
2023-05-08T06:16:27.452Z,12.10
2023-05-08T06:24:19.474Z,12.20
2023-05-08T06:32:02.541Z,12.30
2023-05-08T06:35:48.658Z,12.40
2023-05-08T06:39:57.484Z,12.40
2023-05-08T06:47:57.718Z,12.50
2023-05-08T06:51:40.242Z,12.60
2023-05-08T06:55:55.382Z,12.50
2023-05-08T07:00:23.424Z,12.60
2023-05-08T07:08:14.670Z,12.60
2023-05-08T07:11:57.202Z,12.60
2023-05-08T07:15:57.399Z,12.60
2023-05-08T07:19:43.966Z,12.60
2023-05-08T07:23:47.958Z,12.60
2023-05-08T07:27:32.659Z,12.60
2023-05-08T07:31:42.784Z,12.60
2023-05-08T07:35:25.353Z,12.60
2023-05-08T07:39:30.253Z,12.60
2023-05-08T07:43:13.264Z,12.70
2023-05-08T07:47:24.804Z,12.70
2023-05-08T07:51:07.215Z,12.70
2023-05-08T07:55:23.351Z,12.80
2023-05-08T07:59:05.820Z,12.80
2023-05-08T08:03:26.485Z,12.80
2023-05-08T08:07:09.145Z,12.90
2023-05-08T08:11:23.741Z,12.90
2023-05-08T08:15:52.174Z,13.00
2023-05-08T08:20:05.301Z,13.00
2023-05-08T08:23:47.347Z,13.00
2023-05-08T08:28:15.070Z,13.10
2023-05-08T08:35:56.950Z,13.20
2023-05-08T08:39:39.129Z,13.30
2023-05-08T08:43:46.115Z,13.40
2023-05-08T08:47:29.893Z,13.40
2023-05-08T08:51:41.196Z,13.40
2023-05-08T08:55:25.640Z,13.50
2023-05-08T08:59:26.601Z,13.60
2023-05-08T09:03:09.113Z,13.70
2023-05-08T09:10:54.906Z,14.00
2023-05-08T09:14:37.421Z,14.20
2023-05-08T09:23:15.899Z,14.70
2023-05-08T09:31:36.600Z,15.00
2023-05-08T09:36:06.206Z,15.00
2023-05-08T09:40:35.076Z,15.10
2023-05-08T09:45:07.321Z,15.10
2023-05-08T09:53:46.575Z,15.50
2023-05-08T09:57:29.935Z,15.70
2023-05-08T10:14:13.697Z,16.70
2023-05-08T10:22:15.885Z,16.70
2023-05-08T10:26:37.061Z,16.60
2023-05-08T10:39:12.443Z,16.00
2023-05-08T10:47:04.928Z,15.90
2023-05-08T10:55:42.754Z,16.10
2023-05-08T10:59:25.154Z,16.20
2023-05-08T11:03:56.252Z,16.10
2023-05-08T11:08:24.844Z,15.90
2023-05-08T11:12:52.701Z,16.00
2023-05-08T11:25:15.101Z,16.00
2023-05-08T11:29:32.324Z,16.00
2023-05-08T11:33:16.289Z,16.10
2023-05-08T11:49:56.745Z,16.50
2023-05-08T11:57:48.706Z,16.80
2023-05-08T12:02:33.304Z,16.80
2023-05-08T12:07:01.899Z,16.80
2023-05-08T12:11:08.299Z,16.80
2023-05-08T12:14:51.861Z,16.80
2023-05-08T12:22:44.882Z,17.00
2023-05-08T12:26:56.885Z,17.10
2023-05-08T12:30:41.744Z,17.10
2023-05-08T12:34:46.909Z,17.10
2023-05-08T12:38:32.540Z,17.00
2023-05-08T12:46:18.415Z,16.90
2023-05-08T12:50:36.703Z,16.80
2023-05-08T12:54:19.368Z,16.60
2023-05-08T13:02:12.001Z,16.50
2023-05-08T13:06:22.431Z,16.50
2023-05-08T13:10:05.296Z,16.60
2023-05-08T13:14:11.796Z,16.50
2023-05-08T13:17:54.271Z,16.50
2023-05-08T13:25:41.711Z,16.80
2023-05-08T13:30:02.620Z,17.10
2023-05-08T13:33:44.805Z,17.50
2023-05-08T13:41:30.512Z,18.10
2023-05-08T13:45:56.931Z,18.40
2023-05-08T13:50:17.697Z,18.70
2023-05-08T13:53:59.639Z,19.00
2023-05-08T13:58:12.087Z,19.30
2023-05-08T14:01:54.743Z,19.60
2023-05-08T14:06:01.430Z,19.70
2023-05-08T14:09:43.854Z,19.60
2023-05-08T14:14:12.221Z,19.50
2023-05-08T14:22:07.084Z,19.50
2023-05-08T14:29:53.744Z,19.60
2023-05-08T14:34:14.860Z,19.40
2023-05-08T14:37:57.407Z,19.30
2023-05-08T14:45:42.347Z,19.10
2023-05-08T14:49:59.681Z,19.00
2023-05-08T14:53:42.079Z,19.10
2023-05-08T15:01:28.409Z,19.10
2023-05-08T15:05:42.211Z,19.00
2023-05-08T15:09:24.530Z,18.80
2023-05-08T15:17:10.881Z,18.60
2023-05-08T15:25:10.813Z,18.20
2023-05-08T15:33:01.606Z,17.90
2023-05-08T15:37:17.967Z,17.80
2023-05-08T15:41:02.814Z,17.60
2023-05-08T15:45:15.125Z,17.50
2023-05-08T15:48:58.870Z,17.40
2023-05-08T15:53:05.083Z,17.30
2023-05-08T15:56:47.486Z,17.20
2023-05-08T16:00:54.199Z,17.00
2023-05-08T16:04:40.501Z,17.00
2023-05-08T16:09:09.160Z,16.90
2023-05-08T16:13:38.591Z,16.80
2023-05-08T16:21:31.797Z,16.40
2023-05-08T16:30:31.535Z,16.10
2023-05-08T16:58:41.212Z,15.30
2023-05-08T17:03:11.740Z,15.20
2023-05-08T17:22:15.262Z,15.00
2023-05-08T17:35:47.237Z,14.80
2023-05-08T17:49:22.043Z,14.70
2023-05-08T18:02:51.911Z,14.70
2023-05-08T18:16:19.524Z,14.60
2023-05-08T18:24:20.006Z,14.60
2023-05-08T18:28:46.887Z,14.60
2023-05-08T18:37:49.034Z,14.50
2023-05-08T18:54:44.579Z,14.30
2023-05-08T19:31:35.835Z,14.20
2023-05-08T19:35:21.046Z,14.20
2023-05-08T19:39:03.216Z,14.10
2023-05-08T19:42:45.890Z,14.10
2023-05-08T19:46:28.034Z,14.10
2023-05-08T19:50:12.698Z,14.10
2023-05-08T19:53:55.016Z,14.10
2023-05-08T19:57:37.013Z,14.10
2023-05-08T20:01:19.118Z,14.10
2023-05-08T20:08:46.111Z,14.10
2023-05-08T20:12:28.065Z,14.20
2023-05-08T20:16:10.114Z,14.10
2023-05-08T20:19:52.130Z,14.10
2023-05-08T20:23:34.161Z,14.10
2023-05-08T20:27:16.126Z,14.10
2023-05-08T20:30:58.198Z,14.00
2023-05-08T20:34:40.824Z,14.00
2023-05-08T20:38:23.230Z,14.00
2023-05-08T20:42:05.204Z,14.00
2023-05-08T20:45:49.316Z,14.00
2023-05-08T20:49:31.593Z,14.00
2023-05-08T20:53:13.586Z,14.00
2023-05-08T20:56:55.746Z,13.90
2023-05-08T21:00:37.752Z,13.90
2023-05-08T21:04:19.721Z,13.90
2023-05-08T21:08:03.583Z,13.90
2023-05-08T21:11:45.611Z,13.90
2023-05-08T21:15:27.631Z,14.00
2023-05-08T21:19:11.315Z,14.00
2023-05-08T21:22:56.182Z,14.00
2023-05-08T21:26:38.605Z,14.00
2023-05-08T21:30:20.713Z,14.00
2023-05-08T21:34:07.339Z,14.00
2023-05-08T21:37:54.372Z,14.00
2023-05-08T21:41:48.422Z,14.00
2023-05-08T21:45:43.642Z,14.00
2023-05-08T21:49:27.910Z,14.00
2023-05-08T21:53:10.121Z,14.00
2023-05-08T21:56:55.791Z,13.90
2023-05-08T22:00:42.184Z,13.90
2023-05-08T22:04:29.868Z,13.90
2023-05-08T22:08:11.934Z,13.90
2023-05-08T22:12:10.640Z,13.90
2023-05-08T22:16:08.703Z,13.90
2023-05-08T22:20:19.107Z,13.90
2023-05-08T22:24:13.704Z,13.90
2023-05-08T22:28:02.989Z,13.90
2023-05-08T22:31:55.921Z,14.00
2023-05-08T22:35:42.619Z,13.90
2023-05-08T22:39:41.131Z,13.90
2023-05-08T22:43:28.950Z,13.90
